CheckWX is a tool to help pilots better visualize weather data.  It is not intended as a substitute for an official pre-flight weather briefing.

17:08:08 UTC

KFSO METAR
Franklin County State Airport
Highgate, Vermont, USA
Current

32 mins ago

KFSO 211636Z AUTO 32005KT 10SM SCT024 BKN031 BKN037 29/23 A2972 RMK AO2 T02940228
Observed
Jul-21 @ 16:36 UTC
Wind
  • 320° at 5 KTS
Visibility
10 SM
Flight Rules
VFR
Cloud Levels
  • Scattered at 2,400' AGL
  • Broken at 3,100' AGL
  • Broken at 3,700' AGL
Temperature
29°C / 84°F
Dewpoint
23°C / 73°F
Heat Index
32°C / 90°F
Humidity
70%
Altimeter
29.72" Hg
Pressure
1006.42 hPa
Previous

53 mins ago

KFSO 211615Z AUTO 31003KT 10SM BKN023 OVC030 29/23 A2972 RMK AO2 T02870230
Observed
Jul-21 @ 16:15 UTC
Wind
  • 310° at 3 KTS
Visibility
10 SM
Flight Rules
MVFR
Cloud Levels
  • Broken at 2,300' AGL
  • Overcast at 3,000' AGL
Temperature
29°C / 84°F
Dewpoint
23°C / 73°F
Heat Index
32°C / 90°F
Humidity
70%
Altimeter
29.72" Hg
Pressure
1006.42 hPa
Previous

1 hour ago

KFSO 211555Z AUTO 32004KT 10SM BKN021 OVC030 28/23 A2972 RMK AO2 T02790231
Observed
Jul-21 @ 15:55 UTC
Wind
  • 320° at 4 KTS
Visibility
10 SM
Flight Rules
MVFR
Cloud Levels
  • Broken at 2,100' AGL
  • Overcast at 3,000' AGL
Temperature
28°C / 82°F
Dewpoint
23°C / 73°F
Heat Index
31°C / 87°F
Humidity
74%
Altimeter
29.72" Hg
Pressure
1006.42 hPa